Terminal Aerodrome Forecast
Issued by NWS

Home | Current Version | Previous Version | Text Only | Print | Product List | Glossary On
Versions: 1 2 3 4 5 6 7 8 9 10 11 12 13
000
FTUS43 KOAX 110520
TAFBFF
TAF
KBFF 110520Z 1106/1206 32007KT P6SM SCT040 BKN100
     FM110800 31012KT P6SM BKN050
     FM111800 29009KT P6SM SCT100=

USA.gov is the U.S. government's official web portal to all federal, state and local government web resources and services.